Lobo

Go HERE for most recent data if this page is not up to date.

Jump to table bottom
Date/Time Temp deg F RH % 24 Hr Snow (in) Snow Depth (in) H2O (in)
07/17 07:00 57.2 33 "NAN" 0.2 0.00
07/17 06:00 55.1 41 "NAN" -0.4 0.00
07/17 05:00 55.2 48 "NAN" -1.0 0.00
07/17 04:00 55.7 44 "NAN" -0.0 0.00
07/17 03:00 56.2 43 "NAN" 0.0 0.00
07/17 02:00 58.5 40 "NAN" -0.5 0.00
07/17 01:00 60.7 26 "NAN" -0.5 0.00
07/17 00:00 60.5 27 "NAN" -0.5 0.00
07/16 23:00 60.2 25 "NAN" -0.6 0.00
07/16 22:00 61.6 29 "NAN" -0.4 0.00
07/16 21:00 63.4 29 "NAN" 0.0 0.00
07/16 20:00 64.5 24 "NAN" -0.5 0.00
07/16 19:00 67.4 23 "NAN" -0.3 0.00
07/16 18:00 69.2 17 "NAN" -0.5 0.00
07/16 17:00 70.4 16 "NAN" 2.2 0.00
07/16 16:00 70.2 16 "NAN" 0.1 0.00
07/16 15:00 69.4 17 "NAN" 0.2 0.00
07/16 14:00 68.1 20 "NAN" 0.0 0.00
07/16 13:00 68.0 21 "NAN" 0.4 0.00
07/16 12:00 66.0 24 "NAN" 0.7 0.00
07/16 11:00 63.1 24 "NAN" 1.5 0.00
07/16 10:00 60.1 26 "NAN" 0.6 0.00
07/16 09:00 57.8 32 "NAN" 0.0 0.00
07/16 08:00 56.3 29 "NAN" 2.5 0.00
07/16 07:00 54.8 29 "NAN" 0.4 0.00
07/16 06:00 55.2 27 "NAN" 1.4 0.00
07/16 05:00 55.2 27 "NAN" -0.0 0.00
07/16 04:00 56.7 24 "NAN" -0.5 0.00
07/16 03:00 55.9 23 "NAN" -0.4 0.00
07/16 02:00 55.5 26 "NAN" -0.6 0.00
07/16 01:00 55.0 29 "NAN" -0.5 0.00
07/16 00:00 57.2 26 "NAN" -0.1 0.00
.